NFNL METAR and TAF | Updated Today

NFNL METAR

Labasa Airport

Observation time: 21 min. ago

NFNL 061900Z 00000KT 9999 FEW005 SCT025TCU 25/23 Q1009

Need help? Read our tutorial on how to read METARs or read the parsed version below.

Labasa Airport (NFNL) METAR

  • Weather conditions on Mon, 06 Feb 2023 19:00:00 +0000 (21 min. ago):
  • Present conditions: Dry
  • Clouds: A few at 152 meters; scattered at 762 meters, towering cumulus
  • Visibility: Greater than 10 km
  • Wind: Calm
  • Temperature: 25 celsius
  • Dew point: 23 celsius
  • Pressure: 1009 millibars
  • Remarks: None


Useful to know...

NFNL TAF

Labasa Airport

TAF not found.

Airports near NFNL

No airports found within 100nm radius.